Time;durP1;ratioP1;P1;durP2;ratioP2;P2;SDS_P1;SDS_P2;PMS_P1;PMS_P2;Temp;Humidity;BMP_temperature;BMP_pressure;BME280_temperature;BME280_humidity;BME280_pressure;Samples;Min_cycle;Max_cycle;Signal;HPM_P1;HPM_P2
2022/10/01 00:00:54;;;;;;;6.88;2.50;;;;;;;13.02;42.29;100600.34;7391577;19;19991;-59
2022/10/01 00:03:24;;;;;;;5.40;2.40;;;;;;;13.03;42.23;100607.44;7391719;19;20083;-59
2022/10/01 00:06:05;;;;;;;5.32;2.58;;;;;;;13.10;41.90;100599.34;7392406;19;19998;-59
2022/10/01 00:08:32;;;;;;;7.10;2.40;;;;;;;13.22;41.72;100598.38;7391506;19;20474;-59
2022/10/01 00:11:00;;;;;;;7.55;2.58;;;;;;;13.29;41.65;100602.03;7391554;19;19994;-58
2022/10/01 00:13:27;;;;;;;7.80;2.17;;;;;;;13.09;41.97;100586.78;7391862;19;20027;-58
2022/10/01 00:15:53;;;;;;;8.05;2.50;;;;;;;13.20;41.77;100581.50;7392427;19;19999;-58
2022/10/01 00:18:18;;;;;;;4.68;2.38;;;;;;;13.23;41.67;100580.78;7390606;19;20009;-59
2022/10/01 00:20:44;;;;;;;7.85;2.58;;;;;;;13.06;42.14;100587.50;7388463;19;20461;-59
2022/10/01 00:23:13;;;;;;;6.63;2.25;;;;;;;13.19;42.16;100580.69;7392841;19;20012;-59
2022/10/01 00:25:39;;;;;;;7.10;2.53;;;;;;;13.25;41.54;100573.75;7393083;19;20002;-59
2022/10/01 00:28:05;;;;;;;5.72;2.60;;;;;;;13.29;41.82;100563.66;7391306;19;20006;-58
2022/10/01 00:30:31;;;;;;;5.50;2.10;;;;;;;13.20;41.86;100560.38;7391303;19;20033;-59
2022/10/01 00:32:56;;;;;;;5.72;2.38;;;;;;;13.13;42.04;100552.03;7390047;19;20419;-59
2022/10/01 00:35:22;;;;;;;6.13;2.50;;;;;;;12.90;42.68;100552.00;7391029;19;19994;-58
2022/10/01 00:37:52;;;;;;;5.70;2.00;;;;;;;13.12;42.18;100550.44;7391220;19;20447;-58
2022/10/01 00:40:20;;;;;;;4.63;2.20;;;;;;;13.01;42.59;100546.72;7393528;19;20526;-58
2022/10/01 00:42:46;;;;;;;5.63;2.20;;;;;;;12.99;42.48;100538.06;7390241;19;20439;-58
2022/10/01 00:45:14;;;;;;;5.72;2.58;;;;;;;13.09;42.22;100527.31;7390819;19;20018;-59
2022/10/01 00:47:51;;;;;;;5.22;2.30;;;;;;;12.87;42.69;100520.63;7388542;19;20539;-58
2022/10/01 00:50:27;;;;;;;5.28;2.40;;;;;;;13.02;42.52;100518.16;7391592;19;19999;-59
2022/10/01 00:52:58;;;;;;;6.63;2.40;;;;;;;13.01;42.44;100517.38;7389488;19;20044;-58
2022/10/01 00:55:27;;;;;;;5.57;2.40;;;;;;;13.10;42.30;100511.66;7391079;19;20072;-59
2022/10/01 00:57:54;;;;;;;7.82;2.45;;;;;;;13.09;42.20;100510.06;7391226;19;20017;-58
2022/10/01 01:00:21;;;;;;;5.38;2.63;;;;;;;13.08;42.48;100503.00;7389304;19;20003;-59
2022/10/01 01:02:46;;;;;;;5.35;2.42;;;;;;;12.95;42.63;100497.69;7390247;19;20070;-58
2022/10/01 01:05:12;;;;;;;5.65;2.67;;;;;;;13.10;42.37;100492.47;7389259;19;20054;-58
2022/10/01 01:07:43;;;;;;;5.72;2.38;;;;;;;13.07;42.51;100501.41;7389822;19;20026;-58
2022/10/01 01:10:09;;;;;;;6.32;2.50;;;;;;;13.02;42.62;100493.50;7390174;19;20362;-58
2022/10/01 01:12:57;;;;;;;6.00;2.20;;;;;;;13.07;42.63;100491.25;7388827;19;20494;-58
2022/10/01 01:15:29;;;;;;;5.25;2.60;;;;;;;12.87;43.15;100490.50;7390850;19;20002;-58
2022/10/01 01:18:04;;;;;;;5.80;2.33;;;;;;;12.94;42.88;100478.88;7389235;19;20006;-58
2022/10/01 01:20:50;;;;;;;4.85;2.40;;;;;;;13.12;42.38;100481.94;7390783;19;20011;-58
2022/10/01 01:23:16;;;;;;;6.50;2.80;;;;;;;13.06;42.74;100480.66;7389730;19;20111;-59
2022/10/01 01:26:06;;;;;;;6.28;2.30;;;;;;;13.13;42.61;100473.34;7390173;19;20023;-58
2022/10/01 01:28:39;;;;;;;8.07;2.88;;;;;;;13.18;42.39;100477.75;7388644;19;20024;-58
2022/10/01 01:31:09;;;;;;;5.72;2.50;;;;;;;13.20;42.41;100461.72;7393350;19;20023;-58
2022/10/01 01:33:38;;;;;;;4.55;2.70;;;;;;;12.95;42.99;100462.09;7396672;19;20002;-58
2022/10/01 01:36:15;;;;;;;5.75;2.70;;;;;;;12.96;43.00;100463.69;7397142;19;20510;-58
2022/10/01 01:38:53;;;;;;;5.78;2.42;;;;;;;13.22;42.42;100453.13;7397386;19;19999;-58
2022/10/01 01:41:23;;;;;;;5.95;2.38;;;;;;;13.29;42.13;100459.53;7395791;19;19998;-59
2022/10/01 01:43:52;;;;;;;5.15;2.47;;;;;;;13.35;42.00;100456.47;7396666;19;20018;-58
2022/10/01 01:46:19;;;;;;;4.32;2.35;;;;;;;13.23;42.72;100443.75;7395185;19;20036;-58
2022/10/01 01:48:48;;;;;;;6.70;2.55;;;;;;;13.21;42.72;100441.38;7397026;19;20013;-59
2022/10/01 01:51:23;;;;;;;5.80;2.40;;;;;;;13.09;43.39;100445.13;7395354;19;20002;-58
2022/10/01 01:53:49;;;;;;;7.07;2.50;;;;;;;13.05;43.38;100438.78;7394011;19;20481;-58
2022/10/01 01:56:16;;;;;;;4.78;2.20;;;;;;;13.20;43.16;100437.03;7394363;19;20463;-58
2022/10/01 01:58:43;;;;;;;6.15;2.47;;;;;;;13.12;43.64;100427.13;7396353;19;20006;-58
2022/10/01 02:01:36;;;;;;;6.38;2.50;;;;;;;13.06;44.23;100417.63;7395351;19;20028;-58
2022/10/01 02:04:45;;;;;;;5.40;2.60;;;;;;;12.96;44.61;100413.59;7396058;19;20481;-58
2022/10/01 02:07:17;;;;;;;6.13;2.58;;;;;;;12.92;44.66;100408.03;7395849;19;20412;-58
2022/10/01 02:10:09;;;;;;;5.60;2.45;;;;;;;12.93;45.00;100406.88;7395831;19;20038;-58
2022/10/01 02:12:37;;;;;;;6.95;2.90;;;;;;;12.86;45.34;100387.56;7391536;19;20012;-58
2022/10/01 02:15:09;;;;;;;6.50;2.75;;;;;;;12.82;45.47;100397.66;7396407;19;20002;-58
2022/10/01 02:18:00;;;;;;;6.18;2.60;;;;;;;12.93;45.19;100398.66;7395249;19;19998;-58
2022/10/01 02:20:44;;;;;;;4.57;2.63;;;;;;;12.98;45.29;100391.31;7394169;19;20363;-58
2022/10/01 02:23:26;;;;;;;6.93;3.10;;;;;;;13.01;45.58;100398.78;7396239;19;20062;-58
2022/10/01 02:25:57;;;;;;;6.10;2.90;;;;;;;12.87;45.91;100389.16;7396616;19;20054;-59
2022/10/01 02:28:23;;;;;;;6.25;2.90;;;;;;;12.73;46.05;100383.44;7393961;19;19995;-58
2022/10/01 02:30:52;;;;;;;5.70;2.70;;;;;;;12.86;45.92;100381.28;7394859;19;20071;-58
2022/10/01 02:33:24;;;;;;;7.88;3.35;;;;;;;12.98;46.00;100377.63;7394945;19;20002;-58
2022/10/01 02:35:52;;;;;;;5.47;2.88;;;;;;;12.92;45.90;100374.38;7395306;19;20017;-58
2022/10/01 02:38:20;;;;;;;7.22;3.33;;;;;;;12.86;46.28;100357.44;7394162;19;20392;-58
2022/10/01 02:40:49;;;;;;;6.05;3.10;;;;;;;12.92;46.50;100361.47;7397678;19;19995;-58
2022/10/01 02:43:19;;;;;;;5.22;3.00;;;;;;;12.73;46.84;100350.59;7394313;19;20029;-58
2022/10/01 02:45:49;;;;;;;5.88;3.30;;;;;;;12.83;46.87;100349.97;7395688;19;20015;-58
2022/10/01 02:48:21;;;;;;;7.20;3.03;;;;;;;12.85;46.80;100344.13;7393912;19;19999;-58
2022/10/01 02:50:50;;;;;;;6.07;3.47;;;;;;;12.79;46.93;100349.09;7394682;19;20035;-58
2022/10/01 02:53:23;;;;;;;7.28;3.20;;;;;;;12.69;47.28;100341.50;7391568;19;20014;-58
2022/10/01 02:55:51;;;;;;;7.07;3.42;;;;;;;12.69;46.96;100344.25;7394835;19;20010;-58
2022/10/01 02:58:18;;;;;;;7.22;3.55;;;;;;;12.68;47.41;100337.22;7394143;19;20014;-58
2022/10/01 03:00:44;;;;;;;7.55;3.60;;;;;;;12.52;47.82;100329.91;7393451;19;20007;-59
2022/10/01 03:03:09;;;;;;;6.65;3.53;;;;;;;12.33;48.29;100327.25;7393923;19;19998;-58
2022/10/01 03:05:35;;;;;;;6.90;3.50;;;;;;;12.62;47.66;100311.28;7394486;19;20036;-58
2022/10/01 03:08:01;;;;;;;8.40;3.45;;;;;;;12.64;47.74;100295.28;7393307;19;20002;-58
2022/10/01 03:10:26;;;;;;;8.30;4.00;;;;;;;12.33;48.60;100291.69;7393402;19;19994;-59
2022/10/01 03:12:52;;;;;;;7.03;3.47;;;;;;;12.43;48.39;100291.06;7392517;19;20002;-58
2022/10/01 03:15:18;;;;;;;8.77;3.78;;;;;;;12.34;48.93;100295.97;7393386;19;20022;-58
2022/10/01 03:17:44;;;;;;;9.02;3.72;;;;;;;12.20;49.19;100280.91;7392708;19;20308;-58
2022/10/01 03:20:11;;;;;;;6.93;3.90;;;;;;;12.43;48.81;100271.91;7393648;19;20002;-58
2022/10/01 03:22:36;;;;;;;6.82;3.78;;;;;;;12.45;48.73;100266.84;7391920;19;20009;-58
2022/10/01 03:25:03;;;;;;;11.20;3.88;;;;;;;12.60;48.35;100265.13;7393622;19;20703;-58
2022/10/01 03:27:29;;;;;;;8.15;4.35;;;;;;;12.53;48.82;100252.09;7393752;19;19994;-59
2022/10/01 03:29:54;;;;;;;8.07;4.15;;;;;;;12.49;49.00;100254.00;7392713;19;20043;-58
2022/10/01 03:32:20;;;;;;;8.93;4.10;;;;;;;12.60;48.93;100245.94;7391059;19;20010;-58
2022/10/01 03:34:46;;;;;;;9.25;4.22;;;;;;;12.48;49.27;100235.22;7393570;19;20245;-58
2022/10/01 03:37:11;;;;;;;8.25;4.50;;;;;;;12.13;50.27;100231.53;7393171;19;20450;-58
2022/10/01 03:39:37;;;;;;;7.63;4.07;;;;;;;12.22;50.28;100228.56;7393113;19;20458;-58
2022/10/01 03:42:04;;;;;;;8.98;4.20;;;;;;;12.11;50.66;100228.38;7391097;19;20009;-58
2022/10/01 03:44:30;;;;;;;9.77;4.05;;;;;;;12.22;50.20;100229.38;7392960;19;20359;-58
2022/10/01 03:46:56;;;;;;;8.00;4.07;;;;;;;12.13;50.64;100226.06;7393465;19;20002;-58
2022/10/01 03:49:22;;;;;;;7.10;4.38;;;;;;;12.10;50.82;100209.59;7392969;19;20088;-59
2022/10/01 03:51:48;;;;;;;10.07;4.50;;;;;;;12.12;50.80;100213.53;7389961;19;20014;-58
2022/10/01 03:54:14;;;;;;;11.02;4.82;;;;;;;12.04;51.46;100196.25;7388628;19;20505;-58
2022/10/01 03:56:42;;;;;;;8.15;4.75;;;;;;;12.20;51.43;100185.13;7390905;19;20028;-58
2022/10/01 03:59:09;;;;;;;8.93;4.53;;;;;;;12.07;51.91;100181.03;7389578;19;19995;-58
2022/10/01 04:01:35;;;;;;;13.02;4.50;;;;;;;12.11;51.86;100173.69;7391977;19;20062;-58
2022/10/01 04:04:00;;;;;;;10.20;4.45;;;;;;;12.29;51.26;100162.19;7392075;19;20003;-58
2022/10/01 04:06:26;;;;;;;10.25;4.82;;;;;;;12.33;51.21;100157.59;7391508;19;20490;-59
2022/10/01 04:08:51;;;;;;;9.05;4.60;;;;;;;12.09;51.83;100147.84;7391866;19;20446;-59
2022/10/01 04:11:17;;;;;;;8.38;4.75;;;;;;;12.06;52.17;100149.38;7391596;19;20003;-59
2022/10/01 04:13:42;;;;;;;8.80;5.20;;;;;;;12.26;51.63;100130.09;7393422;19;19998;-59
2022/10/01 04:16:09;;;;;;;7.30;4.15;;;;;;;11.71;52.78;100138.63;7392243;19;19991;-59
2022/10/01 04:18:34;;;;;;;8.75;4.50;;;;;;;11.84;52.64;100127.16;7389070;19;20454;-59
2022/10/01 04:21:00;;;;;;;8.05;4.05;;;;;;;12.12;51.92;100111.53;7388854;19;20002;-58
2022/10/01 04:23:26;;;;;;;8.60;4.20;;;;;;;12.04;52.05;100107.94;7392468;19;20002;-59
2022/10/01 04:25:52;;;;;;;7.88;3.95;;;;;;;12.13;52.25;100113.91;7391795;19;20078;-59
2022/10/01 04:28:23;;;;;;;7.30;3.75;;;;;;;11.87;53.27;100098.28;7391015;19;20027;-59
2022/10/01 04:31:23;;;;;;;7.18;3.70;;;;;;;11.89;53.04;100089.72;7390713;19;20039;-59
2022/10/01 04:33:34;;;;;;;7.38;3.78;;;;;;;12.05;52.69;100098.56;7391473;19;20022;-59
2022/10/01 04:36:00;;;;;;;9.27;4.20;;;;;;;11.88;53.30;100099.88;7390997;19;20019;-59
2022/10/01 04:38:26;;;;;;;6.88;3.65;;;;;;;11.73;53.76;100103.50;7390827;19;20470;-59
2022/10/01 04:40:51;;;;;;;7.70;3.60;;;;;;;11.51;54.25;100099.63;7394862;19;19999;-59
2022/10/01 04:43:17;;;;;;;8.05;3.67;;;;;;;11.71;53.40;100133.94;7391291;19;19999;-59
2022/10/01 04:45:42;;;;;;;7.25;3.42;;;;;;;11.46;54.44;100128.84;7391035;19;20003;-58
2022/10/01 04:48:07;;;;;;;6.90;3.60;;;;;;;11.46;54.68;100131.56;7390949;19;20005;-59
2022/10/01 04:50:33;;;;;;;6.07;3.58;;;;;;;11.56;54.37;100132.91;7390362;19;20471;-59
2022/10/01 04:52:59;;;;;;;5.82;3.30;;;;;;;11.67;54.04;100120.22;7388351;19;20329;-59
2022/10/01 04:55:24;;;;;;;6.28;3.50;;;;;;;11.79;53.58;100107.50;7390900;19;20014;-59
2022/10/01 04:57:50;;;;;;;6.40;3.30;;;;;;;11.70;53.84;100105.00;7390560;19;20036;-59
2022/10/01 05:00:20;;;;;;;8.20;3.83;;;;;;;11.76;53.96;100128.16;7390423;19;20394;-59
2022/10/01 05:02:48;;;;;;;5.80;3.30;;;;;;;11.37;54.89;100103.69;7390351;19;20013;-59
2022/10/01 05:05:15;;;;;;;6.57;3.45;;;;;;;11.61;54.44;100096.28;7397189;19;20008;-59
2022/10/01 05:07:41;;;;;;;7.00;3.90;;;;;;;11.48;54.82;100095.69;7395962;19;20345;-59
2022/10/01 05:10:10;;;;;;;7.80;3.53;;;;;;;12.02;53.27;100099.28;7398394;19;20074;-59
2022/10/01 05:12:36;;;;;;;6.68;3.22;;;;;;;11.88;53.74;100096.34;7394675;19;19995;-59
2022/10/01 05:15:02;;;;;;;7.65;3.60;;;;;;;11.55;54.44;100092.28;7397661;19;20058;-59
2022/10/01 05:17:27;;;;;;;8.55;3.80;;;;;;;11.81;53.86;100078.63;7396874;19;19999;-59
2022/10/01 05:19:53;;;;;;;6.75;3.40;;;;;;;11.78;53.97;100084.84;7396525;19;20039;-58
2022/10/01 05:22:18;;;;;;;8.93;3.83;;;;;;;12.00;53.34;100080.50;7393353;19;20024;-58
2022/10/01 05:24:44;;;;;;;6.18;3.30;;;;;;;12.07;52.94;100077.09;7398217;19;20010;-58
2022/10/01 05:27:12;;;;;;;7.15;3.25;;;;;;;12.21;52.84;100077.28;7398087;19;20001;-58
2022/10/01 05:29:41;;;;;;;6.63;3.10;;;;;;;11.90;53.81;100085.81;7395557;19;20473;-58
2022/10/01 05:32:08;;;;;;;6.28;3.22;;;;;;;11.40;54.96;100077.56;7394964;19;20003;-59
2022/10/01 05:34:34;;;;;;;6.95;3.20;;;;;;;11.63;54.47;100074.84;7397502;19;20046;-58
2022/10/01 05:37:01;;;;;;;5.70;3.00;;;;;;;11.66;54.56;100082.31;7397926;19;20456;-58
2022/10/01 05:39:28;;;;;;;5.55;3.20;;;;;;;11.97;53.44;100081.25;7397175;19;20411;-59
2022/10/01 05:41:54;;;;;;;6.65;3.05;;;;;;;11.90;53.96;100069.41;7394349;19;20017;-58
2022/10/01 05:44:21;;;;;;;7.53;3.47;;;;;;;12.10;53.14;100070.88;7396805;19;20003;-58
2022/10/01 05:46:47;;;;;;;4.95;2.85;;;;;;;12.04;53.69;100064.16;7396005;19;19995;-58
2022/10/01 05:49:14;;;;;;;5.70;3.28;;;;;;;12.14;53.47;100066.25;7395910;19;20299;-58
2022/10/01 05:51:39;;;;;;;8.18;3.35;;;;;;;12.08;53.63;100059.53;7395017;19;20002;-58
2022/10/01 05:54:05;;;;;;;6.10;3.17;;;;;;;11.77;54.42;100055.94;7394642;19;20390;-58
2022/10/01 05:56:30;;;;;;;5.35;3.45;;;;;;;11.64;54.92;100047.13;7395980;19;20030;-58
2022/10/01 05:58:56;;;;;;;6.78;3.28;;;;;;;11.95;54.35;100041.75;7395880;19;20010;-58
2022/10/01 06:01:21;;;;;;;6.88;3.13;;;;;;;11.92;54.43;100042.50;7394780;19;20002;-58
2022/10/01 06:03:53;;;;;;;5.30;2.97;;;;;;;11.86;54.56;100042.03;7396393;19;20408;-58
2022/10/01 06:06:21;;;;;;;4.65;3.00;;;;;;;11.78;54.85;100035.63;7395605;19;20003;-58
2022/10/01 06:08:46;;;;;;;5.35;2.80;;;;;;;11.90;54.64;100034.66;7396259;19;20007;-58
2022/10/01 06:11:12;;;;;;;4.97;2.90;;;;;;;11.44;56.01;100027.31;7396215;19;20450;-58
2022/10/01 06:13:37;;;;;;;8.70;3.53;;;;;;;11.89;54.74;100021.34;7395785;19;20027;-59
2022/10/01 06:16:03;;;;;;;7.80;3.40;;;;;;;12.03;54.37;100032.50;7394394;19;20010;-58
2022/10/01 06:18:28;;;;;;;7.07;3.20;;;;;;;12.12;54.04;100024.78;7395078;19;20006;-58
2022/10/01 06:20:57;;;;;;;5.78;2.97;;;;;;;12.18;53.96;100034.25;7394660;19;20053;-59
2022/10/01 06:23:22;;;;;;;6.40;3.25;;;;;;;11.60;55.51;100029.88;7395741;19;20453;-58
2022/10/01 06:25:48;;;;;;;6.32;3.30;;;;;;;12.05;54.50;100035.63;7396528;19;20050;-58
2022/10/01 06:28:14;;;;;;;6.53;3.45;;;;;;;12.18;54.00;100038.94;7392748;19;20002;-58
2022/10/01 06:30:39;;;;;;;5.03;2.60;;;;;;;12.19;54.09;100030.38;7394699;19;20507;-59
2022/10/01 06:33:08;;;;;;;4.75;2.97;;;;;;;12.10;54.70;100026.34;7395249;19;20069;-58
2022/10/01 06:35:34;;;;;;;8.48;3.67;;;;;;;12.08;54.75;100021.22;7393211;19;20007;-59
2022/10/01 06:38:01;;;;;;;5.47;2.85;;;;;;;12.13;54.80;100029.13;7393044;19;20009;-58
2022/10/01 06:40:28;;;;;;;4.03;2.47;;;;;;;12.13;54.91;100026.38;7398112;19;19998;-58
2022/10/01 06:42:57;;;;;;;5.57;2.53;;;;;;;11.98;54.80;100027.34;7394984;19;19999;-58
2022/10/01 06:45:27;;;;;;;4.78;2.50;;;;;;;11.72;56.17;100031.63;7394943;19;20023;-58
2022/10/01 06:48:03;;;;;;;3.72;2.20;;;;;;;11.81;56.19;100021.22;7395346;19;20002;-58
2022/10/01 06:50:30;;;;;;;4.13;2.33;;;;;;;11.93;55.48;100019.47;7393499;19;20002;-58
2022/10/01 06:52:57;;;;;;;3.65;2.33;;;;;;;12.01;55.22;100015.69;7392374;19;20007;-58
2022/10/01 06:55:25;;;;;;;4.00;2.40;;;;;;;11.84;55.73;100025.19;7392393;19;20003;-58
2022/10/01 06:58:15;;;;;;;4.65;2.50;;;;;;;11.88;56.14;100017.84;7395317;19;20485;-58
2022/10/01 07:00:42;;;;;;;3.83;2.33;;;;;;;12.15;55.31;100026.78;7392121;19;20016;-58
2022/10/01 07:03:12;;;;;;;4.97;2.60;;;;;;;12.16;55.17;100017.44;7391183;19;20510;-58
2022/10/01 07:05:38;;;;;;;3.42;2.03;;;;;;;11.91;55.77;100010.84;7394333;19;20032;-58
2022/10/01 07:08:05;;;;;;;3.58;2.10;;;;;;;11.98;55.95;100011.72;7393784;19;20455;-58
2022/10/01 07:10:32;;;;;;;5.03;2.30;;;;;;;12.08;55.90;100013.03;7393494;19;19994;-59
2022/10/01 07:13:09;;;;;;;3.90;2.17;;;;;;;12.13;56.04;100009.19;7393989;19;20436;-58
2022/10/01 07:15:35;;;;;;;3.25;1.95;;;;;;;12.17;55.74;100019.03;7394090;19;20002;-58
2022/10/01 07:18:00;;;;;;;3.58;1.88;;;;;;;12.09;55.57;100013.81;7393164;19;20003;-58
2022/10/01 07:20:26;;;;;;;3.50;1.83;;;;;;;12.12;55.94;100016.59;7392941;19;20033;-58
2022/10/01 07:22:57;;;;;;;4.20;2.30;;;;;;;12.22;55.47;100024.16;7392270;19;20012;-58
2022/10/01 07:25:24;;;;;;;4.13;1.98;;;;;;;12.37;55.24;100027.06;7394368;19;19995;-59
2022/10/01 07:27:54;;;;;;;4.10;2.28;;;;;;;12.12;56.24;100033.00;7390262;19;20002;-58
2022/10/01 07:30:20;;;;;;;4.38;1.92;;;;;;;12.28;55.64;100023.84;7393893;19;20020;-58
2022/10/01 07:32:46;;;;;;;4.32;2.10;;;;;;;12.22;56.01;100032.38;7392224;19;19998;-58
2022/10/01 07:35:12;;;;;;;3.78;1.83;;;;;;;12.31;55.89;100031.31;7393144;19;20442;-58
2022/10/01 07:37:37;;;;;;;3.97;2.00;;;;;;;12.30;55.78;100035.19;7393054;19;20009;-58
2022/10/01 07:40:03;;;;;;;3.55;2.10;;;;;;;12.19;55.92;100033.09;7394566;19;20003;-58
2022/10/01 07:42:30;;;;;;;2.88;1.60;;;;;;;12.32;55.84;100035.59;7388406;19;20054;-58
2022/10/01 07:44:55;;;;;;;3.55;1.80;;;;;;;12.27;55.99;100033.97;7393313;19;20093;-58
2022/10/01 07:47:21;;;;;;;3.72;2.22;;;;;;;12.40;55.34;100031.78;7392265;19;19998;-58
2022/10/01 07:49:47;;;;;;;3.03;1.95;;;;;;;12.37;55.58;100027.06;7392875;19;19999;-58
2022/10/01 07:52:12;;;;;;;4.60;2.22;;;;;;;12.57;55.29;100030.44;7390153;19;20006;-58
2022/10/01 07:54:38;;;;;;;4.55;2.30;;;;;;;12.49;55.87;100035.03;7389340;19;20003;-58
2022/10/01 07:57:03;;;;;;;4.90;2.50;;;;;;;12.55;55.36;100022.59;7393193;19;20035;-58
2022/10/01 07:59:30;;;;;;;3.47;2.53;;;;;;;12.48;55.76;100028.00;7396416;19;20003;-58
2022/10/01 08:01:55;;;;;;;4.10;2.63;;;;;;;12.47;56.12;100034.59;7389523;19;19998;-58
2022/10/01 08:07:07;;;;;;;5.35;2.92;;;;;;;12.45;56.27;100034.19;7392879;19;20058;-58
2022/10/01 08:09:33;;;;;;;4.70;2.85;;;;;;;12.68;55.57;100019.63;7391091;19;20074;-58
2022/10/01 08:11:58;;;;;;;5.80;3.20;;;;;;;12.75;55.42;100025.16;7389775;19;20362;-58
2022/10/01 08:14:25;;;;;;;6.20;2.90;;;;;;;12.70;55.70;100028.22;7390303;19;20454;-58
2022/10/01 08:16:54;;;;;;;5.10;3.25;;;;;;;12.80;55.67;100022.06;7391130;19;20462;-58
2022/10/01 08:19:19;;;;;;;5.18;3.30;;;;;;;12.84;55.54;100041.28;7391326;19;20009;-58
2022/10/01 08:21:45;;;;;;;5.85;3.53;;;;;;;12.88;55.38;100034.72;7389096;19;20308;-57
2022/10/01 08:24:11;;;;;;;5.82;3.38;;;;;;;12.98;55.53;100038.72;7391988;19;20500;-58
2022/10/01 08:26:37;;;;;;;6.35;3.63;;;;;;;12.90;55.61;100043.34;7392116;19;20006;-58
2022/10/01 08:29:03;;;;;;;6.20;3.55;;;;;;;13.05;55.44;100040.75;7389304;19;20327;-58
2022/10/01 08:31:28;;;;;;;6.60;3.90;;;;;;;13.04;55.56;100047.38;7390805;19;20427;-58
2022/10/01 08:33:54;;;;;;;6.82;3.65;;;;;;;13.11;55.56;100052.94;7390339;19;20001;-58
2022/10/01 08:36:21;;;;;;;7.03;3.78;;;;;;;13.21;55.25;100056.94;7390687;19;20062;-58
2022/10/01 08:38:47;;;;;;;7.03;4.00;;;;;;;13.17;55.44;100062.38;7390141;19;20108;-58
2022/10/01 08:41:38;;;;;;;7.57;4.22;;;;;;;13.22;55.87;100066.75;7389921;19;20009;-58
2022/10/01 08:44:06;;;;;;;6.43;4.10;;;;;;;13.14;55.53;100054.91;7389636;19;19994;-58
2022/10/01 08:46:34;;;;;;;7.15;4.35;;;;;;;13.16;55.73;100066.31;7388934;19;20463;-58
2022/10/01 08:49:24;;;;;;;7.32;4.25;;;;;;;13.40;55.68;100069.66;7390375;19;20010;-57
2022/10/01 08:52:19;;;;;;;8.13;4.60;;;;;;;13.40;55.93;100069.66;7389232;19;20015;-58
2022/10/01 08:54:52;;;;;;;5.72;3.80;;;;;;;13.45;55.21;100072.81;7390123;19;20006;-58
2022/10/01 08:57:23;;;;;;;7.72;4.32;;;;;;;13.52;55.32;100067.38;7391249;19;19998;-58
2022/10/01 08:59:53;;;;;;;6.30;4.32;;;;;;;13.43;55.38;100071.63;7389451;19;20010;-58
2022/10/01 09:02:24;;;;;;;9.15;5.03;;;;;;;13.41;55.83;100079.44;7388487;19;20058;-58
2022/10/01 09:04:53;;;;;;;8.75;4.55;;;;;;;13.48;55.29;100085.78;7389360;19;19999;-58
2022/10/01 09:07:56;;;;;;;10.75;5.38;;;;;;;13.53;55.48;100090.13;7389994;19;20002;-58
2022/10/01 09:10:40;;;;;;;10.60;5.32;;;;;;;13.86;54.56;100082.94;7390224;19;20002;-58
2022/10/01 09:13:14;;;;;;;7.78;5.05;;;;;;;13.90;54.77;100089.25;7387454;19;20560;-58
2022/10/01 09:15:49;;;;;;;9.07;5.53;;;;;;;13.69;55.52;100096.13;7391702;19;20456;-58
2022/10/01 09:18:52;;;;;;;9.55;5.80;;;;;;;13.99;55.17;100088.91;7388284;19;20050;-58
2022/10/01 09:21:26;;;;;;;10.90;5.63;;;;;;;14.12;54.64;100092.16;7388941;19;20372;-58
2022/10/01 09:24:03;;;;;;;7.97;5.05;;;;;;;14.18;54.83;100093.38;7389482;19;19998;-58
2022/10/01 09:26:30;;;;;;;9.38;5.20;;;;;;;14.30;54.07;100104.00;7390194;19;19995;-58
2022/10/01 09:29:00;;;;;;;8.88;5.28;;;;;;;14.44;54.08;100098.59;7389465;19;20258;-58
2022/10/01 09:31:30;;;;;;;8.23;5.55;;;;;;;14.23;54.76;100106.72;7389111;19;20422;-59
2022/10/01 09:34:13;;;;;;;9.18;5.65;;;;;;;14.36;54.67;100107.97;7389145;19;20005;-59
2022/10/01 09:36:46;;;;;;;9.10;5.78;;;;;;;14.56;54.16;100110.41;7390554;19;20026;-59
2022/10/01 09:39:27;;;;;;;10.83;5.63;;;;;;;14.58;54.46;100108.88;7389666;19;19987;-59
2022/10/01 09:41:52;;;;;;;10.65;5.65;;;;;;;14.66;54.24;100103.38;7387340;19;20006;-58
2022/10/01 09:44:26;;;;;;;8.73;5.25;;;;;;;14.54;54.73;100101.78;7387956;19;20466;-59
2022/10/01 09:46:52;;;;;;;;;;;;;;;14.61;54.99;100101.78;7389995;19;19998;-59
2022/10/01 09:49:26;;;;;;;9.95;5.40;;;;;;;14.72;54.38;100105.38;7389297;19;19915;-58
2022/10/01 09:51:56;;;;;;;11.60;5.90;;;;;;;14.83;53.85;100107.41;7390235;19;20066;-58
2022/10/01 09:54:35;;;;;;;9.00;5.63;;;;;;;15.04;53.61;100110.22;7395373;19;20020;-58
2022/10/01 09:57:11;;;;;;;10.05;5.72;;;;;;;15.24;53.33;100115.38;7396672;19;20021;-58
2022/10/01 10:00:02;;;;;;;11.48;5.85;;;;;;;15.25;53.32;100119.72;7395837;19;20334;-58
2022/10/01 10:02:36;;;;;;;11.48;5.53;;;;;;;15.34;53.02;100118.13;7391643;19;19999;-58
2022/10/01 10:05:05;;;;;;;11.15;5.57;;;;;;;15.48;52.61;100125.63;7396380;19;20010;-58
2022/10/01 10:07:33;;;;;;;8.95;4.97;;;;;;;15.39;53.17;100122.47;7395721;19;20002;-58
2022/10/01 10:10:20;;;;;;;9.50;5.13;;;;;;;15.27;53.77;100125.59;7395292;19;20003;-58
2022/10/01 10:12:47;;;;;;;11.10;5.75;;;;;;;15.40;53.45;100134.25;7395504;19;20011;-58
2022/10/01 10:15:20;;;;;;;11.73;4.95;;;;;;;15.45;53.37;100139.38;7393921;19;20343;-58
2022/10/01 10:17:51;;;;;;;8.40;4.68;;;;;;;15.32;53.63;100138.94;7395132;19;20002;-58
2022/10/01 10:20:37;;;;;;;9.85;4.90;;;;;;;15.35;53.39;100138.19;7396167;19;20002;-58
2022/10/01 10:23:18;;;;;;;9.45;4.90;;;;;;;15.58;53.24;100140.56;7395066;19;20003;-58
2022/10/01 10:26:01;;;;;;;8.45;4.45;;;;;;;15.64;52.94;100138.25;7396456;19;20003;-58
2022/10/01 10:28:37;;;;;;;9.80;4.80;;;;;;;15.50;52.79;100145.28;7394867;19;20036;-58
2022/10/01 10:31:10;;;;;;;9.40;4.72;;;;;;;15.64;52.58;100157.50;7395044;19;20006;-58
2022/10/01 10:33:36;;;;;;;13.48;4.57;;;;;;;15.80;52.27;100151.59;7394923;19;20011;-58
2022/10/01 10:36:04;;;;;;;11.10;4.22;;;;;;;16.01;51.64;100167.31;7395292;19;20005;-58
2022/10/01 10:38:33;;;;;;;10.13;4.00;;;;;;;16.14;51.22;100154.72;7394020;19;20022;-58
2022/10/01 10:41:00;;;;;;;7.05;3.28;;;;;;;16.08;51.51;100156.28;7398612;19;20026;-59
2022/10/01 10:43:32;;;;;;;10.32;4.32;;;;;;;16.00;51.64;100161.03;7395914;19;20471;-59
2022/10/01 10:45:59;;;;;;;6.28;3.20;;;;;;;15.94;51.89;100161.81;7392549;19;20010;-59
2022/10/01 10:48:36;;;;;;;9.80;3.00;;;;;;;16.13;51.21;100158.66;7394208;19;20525;-59
2022/10/01 10:51:04;;;;;;;5.03;2.53;;;;;;;16.46;50.72;100162.91;7393990;19;20035;-58
2022/10/01 10:53:43;;;;;;;6.97;2.55;;;;;;;16.38;50.53;100160.59;7393023;19;20027;-58
2022/10/01 10:56:37;;;;;;;9.52;2.90;;;;;;;16.24;50.52;100164.94;7394236;19;20003;-59
2022/10/01 10:59:07;;;;;;;9.35;2.30;;;;;;;15.96;51.27;100171.25;7393387;19;20015;-58
2022/10/01 11:01:40;;;;;;;7.57;1.95;;;;;;;16.02;50.70;100182.66;7391993;19;20020;-58
2022/10/01 11:04:22;;;;;;;12.65;2.33;;;;;;;16.07;50.75;100179.50;7394130;19;20019;-59
2022/10/01 11:07:00;;;;;;;6.35;2.47;;;;;;;16.23;50.14;100174.38;7394044;19;20002;-58
2022/10/01 11:10:07;;;;;;;10.65;2.85;;;;;;;16.27;50.53;100164.16;7391925;19;20036;-59
2022/10/01 11:12:57;;;;;;;7.55;2.10;;;;;;;16.46;50.13;100175.91;7391324;19;20000;-58
2022/10/01 11:15:43;;;;;;;12.48;2.47;;;;;;;16.21;50.41;100164.94;7393869;19;19999;-59
2022/10/01 11:18:21;;;;;;;7.20;2.22;;;;;;;16.36;50.23;100162.94;7392050;19;20003;-58
2022/10/01 11:21:12;;;;;;;6.75;2.13;;;;;;;16.27;49.98;100168.88;7391953;19;20003;-58
2022/10/01 11:23:52;;;;;;;9.68;2.08;;;;;;;16.19;49.87;100172.81;7393543;19;20381;-59
2022/10/01 11:26:26;;;;;;;7.72;2.25;;;;;;;16.33;49.55;100177.50;7394233;19;19999;-58
2022/10/01 11:28:57;;;;;;;;;;;;;;;16.41;49.09;100168.84;7394310;19;20450;-58
2022/10/01 11:31:30;;;;;;;9.68;2.00;;;;;;;16.52;49.48;100166.09;7392468;19;19914;-58
2022/10/01 11:34:17;;;;;;;9.05;1.85;;;;;;;16.66;48.86;100157.00;7394013;19;20462;-58
2022/10/01 11:36:55;;;;;;;10.90;2.00;;;;;;;16.77;48.27;100160.50;7391680;19;19995;-56
2022/10/01 11:39:25;;;;;;;6.13;1.52;;;;;;;16.76;47.83;100158.16;7391819;19;20330;-58
2022/10/01 11:41:58;;;;;;;8.25;1.80;;;;;;;16.73;47.99;100169.97;7394301;19;19994;-58